createdAt,value
2022-08-20T00:01:16.309Z,100604.47
2022-08-20T00:03:44.707Z,100602.81
2022-08-20T00:06:23.246Z,100601.28
2022-08-20T00:08:50.964Z,100599.34
2022-08-20T00:11:25.207Z,100589.06
2022-08-20T00:13:59.418Z,100582.31
2022-08-20T00:16:32.806Z,100575.38
2022-08-20T00:19:02.684Z,100578.28
2022-08-20T00:21:31.505Z,100573.09
2022-08-20T00:23:59.159Z,100583.59
2022-08-20T00:26:26.978Z,100591.19
2022-08-20T00:28:54.693Z,100586.84
2022-08-20T00:31:24.566Z,100580.16
2022-08-20T00:33:53.671Z,100590.28
2022-08-20T00:36:22.004Z,100587.53
2022-08-20T00:38:58.972Z,100584.41
2022-08-20T00:41:28.265Z,100588.44
2022-08-20T00:44:21.915Z,100584.06
2022-08-20T00:46:52.209Z,100589.50
2022-08-20T00:49:28.049Z,100592.22
2022-08-20T00:52:15.649Z,100587.72
2022-08-20T00:54:57.971Z,100595.06
2022-08-20T00:58:10.328Z,100594.41
2022-08-20T01:00:45.580Z,100599.03
2022-08-20T01:03:20.344Z,100598.38
2022-08-20T01:05:54.952Z,100594.81
2022-08-20T01:08:26.514Z,100594.81
2022-08-20T01:11:10.413Z,100596.06
2022-08-20T01:13:40.975Z,100603.31
2022-08-20T01:16:23.666Z,100597.16
2022-08-20T01:18:52.877Z,100602.97
2022-08-20T01:21:27.497Z,100596.88
2022-08-20T01:24:34.444Z,100604.59
2022-08-20T01:27:06.263Z,100604.53
2022-08-20T01:29:40.579Z,100594.03
2022-08-20T01:32:07.679Z,100591.88
2022-08-20T01:34:34.496Z,100586.81
2022-08-20T01:37:01.687Z,100585.94
2022-08-20T01:39:35.554Z,100583.41
2022-08-20T01:42:25.076Z,100586.53
2022-08-20T01:44:52.854Z,100589.06
2022-08-20T01:47:29.717Z,100592.41
2022-08-20T01:50:15.523Z,100589.91
2022-08-20T01:52:56.117Z,100586.53
2022-08-20T01:55:24.027Z,100587.75
2022-08-20T01:57:51.177Z,100589.16
2022-08-20T02:00:22.075Z,100597.75
2022-08-20T02:02:49.730Z,100596.94
2022-08-20T02:05:18.986Z,100604.44
2022-08-20T02:07:46.762Z,100605.00
2022-08-20T02:10:18.343Z,100604.56
2022-08-20T02:12:45.271Z,100606.16
2022-08-20T02:15:14.486Z,100604.47
2022-08-20T02:17:42.942Z,100607.56
2022-08-20T02:20:23.557Z,100602.22
2022-08-20T02:22:59.009Z,100603.59
2022-08-20T02:25:33.073Z,100613.25
2022-08-20T02:28:09.080Z,100606.78
2022-08-20T02:30:44.123Z,100613.16
2022-08-20T02:33:17.302Z,100613.25
2022-08-20T02:35:49.493Z,100616.44
2022-08-20T02:38:17.262Z,100614.34
2022-08-20T02:40:46.873Z,100613.16
2022-08-20T02:43:14.490Z,100605.34
2022-08-20T02:45:44.052Z,100605.34
2022-08-20T02:48:21.473Z,100615.41
2022-08-20T02:51:01.779Z,100607.25
2022-08-20T02:53:36.363Z,100619.16
2022-08-20T02:56:05.629Z,100614.19
2022-08-20T02:58:33.179Z,100614.81
2022-08-20T03:00:59.955Z,100616.50
2022-08-20T03:03:26.809Z,100615.31
2022-08-20T03:05:59.219Z,100619.69
2022-08-20T03:08:30.399Z,100615.75
2022-08-20T03:10:57.772Z,100610.13
2022-08-20T03:13:25.881Z,100609.53
2022-08-20T03:15:59.351Z,100607.06
2022-08-20T03:18:35.873Z,100614.00
2022-08-20T03:21:07.739Z,100605.63
2022-08-20T03:23:40.363Z,100612.13
2022-08-20T03:26:12.337Z,100613.81
2022-08-20T03:28:42.643Z,100613.41
2022-08-20T03:31:12.674Z,100606.09
2022-08-20T03:33:52.953Z,100604.66
2022-08-20T03:36:28.095Z,100615.38
2022-08-20T03:39:00.427Z,100606.59
2022-08-20T03:41:32.175Z,100610.44
2022-08-20T03:43:59.245Z,100612.97
2022-08-20T03:46:29.110Z,100612.31
2022-08-20T03:48:58.707Z,100618.03
2022-08-20T03:51:30.406Z,100615.75
2022-08-20T03:53:58.733Z,100614.72
2022-08-20T03:56:27.138Z,100614.50
2022-08-20T03:58:54.670Z,100619.78
2022-08-20T04:01:44.571Z,100614.31
2022-08-20T04:04:12.306Z,100625.03
2022-08-20T04:06:41.472Z,100620.66
2022-08-20T04:09:12.150Z,100623.38
2022-08-20T04:11:43.410Z,100634.75
2022-08-20T04:14:11.979Z,100641.88
2022-08-20T04:16:46.334Z,100637.66
2022-08-20T04:19:15.583Z,100640.19
2022-08-20T04:21:42.396Z,100641.88
2022-08-20T04:24:22.731Z,100648.81
2022-08-20T04:26:56.677Z,100644.66
2022-08-20T04:29:35.677Z,100649.44
2022-08-20T04:32:06.398Z,100649.25
2022-08-20T04:34:48.811Z,100651.81
2022-08-20T04:37:26.869Z,100663.78
2022-08-20T04:40:14.439Z,100657.97
2022-08-20T04:42:43.568Z,100660.09
2022-08-20T04:45:11.368Z,100660.53
2022-08-20T04:47:38.310Z,100647.19
2022-08-20T04:52:52.819Z,100654.63
2022-08-20T04:58:18.027Z,100650.97
2022-08-20T05:01:01.087Z,100666.13
2022-08-20T05:03:33.586Z,100663.22
2022-08-20T05:06:01.791Z,100665.97
2022-08-20T05:08:30.025Z,100662.66
2022-08-20T05:11:21.533Z,100656.81
2022-08-20T05:13:45.878Z,100656.63
2022-08-20T05:16:20.820Z,100665.06
2022-08-20T05:18:50.541Z,100658.13
2022-08-20T05:21:21.197Z,100669.09
2022-08-20T05:23:49.372Z,100663.25
2022-08-20T05:26:23.680Z,100677.94
2022-08-20T05:28:58.616Z,100668.78
2022-08-20T05:31:33.287Z,100665.66
2022-08-20T05:34:13.170Z,100667.16
2022-08-20T05:36:52.153Z,100663.63
2022-08-20T05:39:23.599Z,100663.63
2022-08-20T05:41:59.089Z,100671.19
2022-08-20T05:44:26.032Z,100663.41
2022-08-20T05:46:53.075Z,100662.38
2022-08-20T05:49:21.874Z,100665.72
2022-08-20T05:51:53.176Z,100665.75
2022-08-20T05:54:20.066Z,100662.78
2022-08-20T05:56:47.396Z,100666.38
2022-08-20T05:59:14.688Z,100676.91
2022-08-20T06:01:43.226Z,100678.59
2022-08-20T06:04:29.718Z,100671.47
2022-08-20T06:07:07.389Z,100678.84
2022-08-20T06:09:36.148Z,100684.53
2022-08-20T06:12:08.515Z,100684.34
2022-08-20T06:14:36.923Z,100688.31
2022-08-20T06:17:15.181Z,100680.09
2022-08-20T06:19:45.765Z,100686.56
2022-08-20T06:22:18.965Z,100686.56
2022-08-20T06:24:56.404Z,100682.47
2022-08-20T06:27:24.806Z,100692.84
2022-08-20T06:29:53.813Z,100697.72
2022-08-20T06:32:32.473Z,100695.44
2022-08-20T06:35:03.793Z,100695.22
2022-08-20T06:37:33.706Z,100694.88
2022-08-20T06:40:09.006Z,100692.72
2022-08-20T06:42:36.904Z,100695.88
2022-08-20T06:45:05.704Z,100693.59
2022-08-20T06:47:34.397Z,100691.25
2022-08-20T06:50:01.304Z,100703.16
2022-08-20T06:52:48.078Z,100698.81
2022-08-20T06:55:17.535Z,100704.19
2022-08-20T06:57:45.472Z,100703.81
2022-08-20T07:00:20.720Z,100696.84
2022-08-20T07:02:48.100Z,100705.22
2022-08-20T07:05:16.363Z,100706.31
2022-08-20T07:07:51.093Z,100705.25
2022-08-20T07:10:22.008Z,100712.63
2022-08-20T07:12:51.116Z,100710.69
2022-08-20T07:15:23.056Z,100714.44
2022-08-20T07:18:01.730Z,100718.72
2022-08-20T07:20:32.089Z,100719.13
2022-08-20T07:23:00.832Z,100726.56
2022-08-20T07:25:29.747Z,100728.69
2022-08-20T07:28:19.439Z,100722.72
2022-08-20T07:31:13.211Z,100727.06
2022-08-20T07:33:42.646Z,100731.13
2022-08-20T07:36:12.994Z,100732.25
2022-08-20T07:38:40.829Z,100739.88
2022-08-20T07:41:13.523Z,100725.28
2022-08-20T07:43:43.232Z,100739.50
2022-08-20T07:46:10.183Z,100727.28
2022-08-20T07:48:46.148Z,100737.94
2022-08-20T07:51:17.723Z,100740.84
2022-08-20T07:53:47.800Z,100742.75
2022-08-20T07:56:24.134Z,100735.63
2022-08-20T07:58:58.931Z,100735.97
2022-08-20T08:01:31.666Z,100743.41
2022-08-20T08:04:00.600Z,100746.78
2022-08-20T08:06:31.550Z,100759.22
2022-08-20T08:09:14.523Z,100749.53
2022-08-20T08:11:50.535Z,100752.28
2022-08-20T08:14:29.693Z,100759.59
2022-08-20T08:17:03.376Z,100764.22
2022-08-20T08:19:38.640Z,100773.56
2022-08-20T08:22:16.277Z,100767.81
2022-08-20T08:24:57.464Z,100770.81
2022-08-20T08:27:25.236Z,100775.06
2022-08-20T08:29:51.893Z,100769.16
2022-08-20T08:32:18.598Z,100777.28
2022-08-20T08:34:47.555Z,100781.41
2022-08-20T08:37:14.226Z,100780.66
2022-08-20T08:39:43.759Z,100779.19
2022-08-20T08:42:55.517Z,100778.13
2022-08-20T08:45:22.673Z,100783.66
2022-08-20T08:47:50.130Z,100774.94
2022-08-20T08:50:52.879Z,100772.34
2022-08-20T08:53:44.627Z,100776.53
2022-08-20T08:56:14.552Z,100771.38
2022-08-20T08:58:46.818Z,100780.66
2022-08-20T09:01:55.573Z,100783.84
2022-08-20T09:04:10.465Z,100779.84
2022-08-20T09:06:39.403Z,100777.34
2022-08-20T09:09:32.843Z,100780.13
2022-08-20T09:12:28.798Z,100781.59
2022-08-20T09:14:55.890Z,100787.94
2022-08-20T09:17:23.833Z,100783.19
2022-08-20T09:19:52.454Z,100788.78
2022-08-20T09:22:25.877Z,100782.59
2022-08-20T09:24:56.332Z,100785.97
2022-08-20T09:27:22.977Z,100792.06
2022-08-20T09:29:50.269Z,100796.03
2022-08-20T09:32:23.566Z,100798.19
2022-08-20T09:34:59.413Z,100790.72
2022-08-20T09:37:36.661Z,100791.97
2022-08-20T09:40:08.586Z,100795.09
2022-08-20T09:42:41.433Z,100783.94
2022-08-20T09:45:11.479Z,100787.63
2022-08-20T09:47:54.979Z,100777.75
2022-08-20T09:50:25.975Z,100785.19
2022-08-20T09:52:57.301Z,100785.75
2022-08-20T09:55:38.360Z,100784.06
2022-08-20T09:58:43.441Z,100775.25
2022-08-20T10:01:16.957Z,100785.44
2022-08-20T10:03:49.442Z,100784.66
2022-08-20T10:06:20.804Z,100778.09
2022-08-20T10:08:50.105Z,100780.91
2022-08-20T10:11:18.376Z,100776.81
2022-08-20T10:13:45.927Z,100777.78
2022-08-20T10:16:12.986Z,100769.13
2022-08-20T10:18:39.937Z,100778.72
2022-08-20T10:21:13.377Z,100773.91
2022-08-20T10:23:40.840Z,100766.84
2022-08-20T10:26:13.445Z,100782.88
2022-08-20T10:28:43.422Z,100782.94
2022-08-20T10:31:12.971Z,100778.44
2022-08-20T10:33:42.081Z,100781.31
2022-08-20T10:36:17.813Z,100781.44
2022-08-20T10:38:49.047Z,100775.06
2022-08-20T10:41:16.140Z,100787.88
2022-08-20T10:43:45.098Z,100778.66
2022-08-20T10:46:12.743Z,100781.44
2022-08-20T10:48:40.039Z,100786.59
2022-08-20T10:51:07.052Z,100796.88
2022-08-20T10:53:36.895Z,100797.41
2022-08-20T10:56:04.127Z,100796.19
2022-08-20T10:58:39.719Z,100801.78
2022-08-20T11:01:08.253Z,100801.78
2022-08-20T11:03:35.730Z,100811.81
2022-08-20T11:06:03.412Z,100808.53
2022-08-20T11:08:33.421Z,100814.84
2022-08-20T11:11:01.302Z,100822.81
2022-08-20T11:13:28.165Z,100826.75
2022-08-20T11:15:54.833Z,100832.16
2022-08-20T11:18:24.608Z,100827.41
2022-08-20T11:20:51.387Z,100821.47
2022-08-20T11:23:18.132Z,100827.34
2022-08-20T11:25:44.859Z,100821.28
2022-08-20T11:28:12.981Z,100826.31
2022-08-20T11:30:39.719Z,100820.19
2022-08-20T11:33:07.402Z,100828.19
2022-08-20T11:35:49.356Z,100811.41
2022-08-20T11:38:19.039Z,100828.59
2022-08-20T11:40:46.991Z,100821.34
2022-08-20T11:43:17.299Z,100819.09
2022-08-20T11:45:50.185Z,100818.66
2022-08-20T11:48:17.880Z,100819.94
2022-08-20T11:50:45.141Z,100811.97
2022-08-20T11:53:11.805Z,100815.50
2022-08-20T11:55:39.602Z,100819.34
2022-08-20T11:58:07.130Z,100828.75
2022-08-20T12:00:36.700Z,100820.00
2022-08-20T12:03:08.723Z,100818.66
2022-08-20T12:05:43.590Z,100819.16
2022-08-20T12:08:25.094Z,100822.00
2022-08-20T12:10:54.808Z,100817.06
2022-08-20T12:13:21.567Z,100827.84
2022-08-20T12:15:58.721Z,100822.59
2022-08-20T12:18:27.096Z,100820.78
2022-08-20T12:20:55.176Z,100822.38
2022-08-20T12:23:21.840Z,100817.81
2022-08-20T12:25:49.731Z,100825.34
2022-08-20T12:28:17.095Z,100829.06
2022-08-20T12:30:49.737Z,100828.75
2022-08-20T12:33:16.482Z,100838.53
2022-08-20T12:35:43.321Z,100842.66
2022-08-20T12:38:10.044Z,100839.69
2022-08-20T12:40:36.958Z,100842.50
2022-08-20T12:43:04.950Z,100845.38
2022-08-20T12:45:33.945Z,100842.44
2022-08-20T12:48:12.172Z,100850.81
2022-08-20T12:50:44.013Z,100855.59
2022-08-20T12:53:10.822Z,100853.31
2022-08-20T12:55:37.795Z,100854.34
2022-08-20T12:58:10.021Z,100861.56
2022-08-20T13:00:46.495Z,100861.56
2022-08-20T13:03:19.808Z,100864.81
2022-08-20T13:05:48.072Z,100864.34
2022-08-20T13:08:15.056Z,100861.94
2022-08-20T13:10:45.764Z,100868.53
2022-08-20T13:13:17.459Z,100859.59
2022-08-20T13:15:49.691Z,100865.81
2022-08-20T13:18:16.645Z,100872.13
2022-08-20T13:20:43.527Z,100865.66
2022-08-20T13:23:10.509Z,100866.41
2022-08-20T13:25:37.321Z,100863.78
2022-08-20T13:28:05.584Z,100875.72
2022-08-20T13:30:38.509Z,100869.25
2022-08-20T13:33:05.279Z,100870.19
2022-08-20T13:35:32.275Z,100863.84
2022-08-20T13:37:59.384Z,100855.78
2022-08-20T13:40:28.279Z,100858.41
2022-08-20T13:42:54.946Z,100847.41
2022-08-20T13:45:21.773Z,100862.16
2022-08-20T13:47:54.745Z,100856.03
2022-08-20T13:50:25.636Z,100849.78
2022-08-20T13:52:54.310Z,100850.22
2022-08-20T13:55:28.216Z,100855.13
2022-08-20T13:57:57.542Z,100846.38
2022-08-20T14:00:32.123Z,100853.38
2022-08-20T14:03:02.470Z,100848.88
2022-08-20T14:05:31.429Z,100842.41
2022-08-20T14:08:22.709Z,100837.41
2022-08-20T14:10:51.575Z,100831.34
2022-08-20T14:13:23.385Z,100836.78
2022-08-20T14:15:51.077Z,100842.09
2022-08-20T14:18:18.806Z,100838.94
2022-08-20T14:20:46.174Z,100835.13
2022-08-20T14:23:15.165Z,100835.16
2022-08-20T14:25:47.596Z,100838.75
2022-08-20T14:28:25.082Z,100829.34
2022-08-20T14:30:53.619Z,100817.78
2022-08-20T14:33:23.698Z,100825.41
2022-08-20T14:35:51.693Z,100839.22
2022-08-20T14:38:18.424Z,100826.75
2022-08-20T14:40:45.234Z,100831.22
2022-08-20T14:43:12.126Z,100824.53
2022-08-20T14:45:39.092Z,100827.75
2022-08-20T14:48:09.206Z,100823.34
2022-08-20T14:50:38.383Z,100825.00
2022-08-20T14:53:06.681Z,100834.81
2022-08-20T14:55:37.784Z,100835.91
2022-08-20T14:58:14.930Z,100840.16
2022-08-20T15:00:43.425Z,100832.69
2022-08-20T15:03:10.236Z,100844.06
2022-08-20T15:05:39.245Z,100837.13
2022-08-20T15:08:07.698Z,100845.16
2022-08-20T15:10:34.685Z,100837.97
2022-08-20T15:13:02.427Z,100840.50
2022-08-20T15:15:29.606Z,100843.59
2022-08-20T15:18:02.400Z,100845.72
2022-08-20T15:20:35.331Z,100841.47
2022-08-20T15:23:04.636Z,100836.50
2022-08-20T15:25:37.709Z,100846.97
2022-08-20T15:28:09.807Z,100850.88
2022-08-20T15:30:41.487Z,100851.97
2022-08-20T15:33:10.435Z,100859.06
2022-08-20T15:35:37.262Z,100854.53
2022-08-20T15:38:04.118Z,100858.50
2022-08-20T15:40:33.419Z,100859.66
2022-08-20T15:43:03.606Z,100858.31
2022-08-20T15:45:31.632Z,100854.44
2022-08-20T15:48:21.026Z,100846.25
2022-08-20T15:50:47.621Z,100851.34
2022-08-20T15:53:36.575Z,100851.44
2022-08-20T15:56:44.911Z,100849.78
2022-08-20T15:59:39.209Z,100858.16
2022-08-20T16:02:25.098Z,100857.38
2022-08-20T16:05:21.491Z,100853.47
2022-08-20T16:08:29.964Z,100865.72
2022-08-20T16:11:23.035Z,100865.22
2022-08-20T16:13:55.777Z,100869.63
2022-08-20T16:16:44.798Z,100874.41
2022-08-20T16:19:27.265Z,100871.31
2022-08-20T16:21:59.009Z,100875.94
2022-08-20T16:24:25.943Z,100879.56
2022-08-20T16:27:13.565Z,100873.22
2022-08-20T16:30:02.914Z,100872.38
2022-08-20T16:32:50.368Z,100875.22
2022-08-20T16:35:42.113Z,100879.19
2022-08-20T16:38:59.156Z,100890.53
2022-08-20T16:41:49.527Z,100883.81
2022-08-20T16:44:22.250Z,100888.47
2022-08-20T16:47:11.741Z,100887.16
2022-08-20T16:49:51.982Z,100891.00
2022-08-20T16:52:18.874Z,100893.59
2022-08-20T16:54:45.926Z,100898.88
2022-08-20T16:57:17.175Z,100894.00
2022-08-20T17:00:10.942Z,100902.66
2022-08-20T17:03:00.662Z,100915.22
2022-08-20T17:05:56.063Z,100906.53
2022-08-20T17:08:49.990Z,100905.22
2022-08-20T17:11:33.144Z,100912.09
2022-08-20T17:14:19.467Z,100915.78
2022-08-20T17:16:52.112Z,100917.78
2022-08-20T17:19:29.360Z,100915.03
2022-08-20T17:22:17.947Z,100924.97
2022-08-20T17:24:44.698Z,100927.09
2022-08-20T17:27:29.005Z,100921.53
2022-08-20T17:30:35.678Z,100919.31
2022-08-20T17:33:17.918Z,100914.72
2022-08-20T17:36:00.737Z,100906.53
2022-08-20T17:38:39.159Z,100908.63
2022-08-20T17:41:23.579Z,100911.00
2022-08-20T17:44:02.387Z,100908.91
2022-08-20T17:46:42.422Z,100916.09
2022-08-20T17:49:17.591Z,100921.16
2022-08-20T17:51:54.776Z,100919.28
2022-08-20T17:54:32.859Z,100915.06
2022-08-20T17:57:14.278Z,100914.00
2022-08-20T18:00:00.599Z,100912.56
2022-08-20T18:02:31.200Z,100923.31
2022-08-20T18:04:58.133Z,100918.91
2022-08-20T18:07:55.574Z,100915.53
2022-08-20T18:10:27.230Z,100920.34
2022-08-20T18:13:45.143Z,100916.94
2022-08-20T18:16:41.139Z,100919.47
2022-08-20T18:20:21.181Z,100917.56
2022-08-20T18:23:14.574Z,100924.06
2022-08-20T18:26:00.835Z,100925.06
2022-08-20T18:28:58.536Z,100926.09
2022-08-20T18:31:51.742Z,100919.31
2022-08-20T18:34:36.740Z,100924.50
2022-08-20T18:37:12.626Z,100919.81
2022-08-20T18:39:48.844Z,100930.06
2022-08-20T18:42:21.871Z,100938.47
2022-08-20T18:44:53.902Z,100941.34
2022-08-20T18:47:34.195Z,100940.06
2022-08-20T18:50:16.166Z,100942.56
2022-08-20T18:53:04.925Z,100943.81
2022-08-20T18:55:47.785Z,100941.69
2022-08-20T18:59:06.779Z,100942.91
2022-08-20T19:01:38.712Z,100946.69
2022-08-20T19:04:28.018Z,100952.16
2022-08-20T19:07:06.175Z,100942.47
2022-08-20T19:10:04.084Z,100952.56
2022-08-20T19:13:29.687Z,100950.59
2022-08-20T19:16:13.344Z,100946.63
2022-08-20T19:18:55.615Z,100951.72
2022-08-20T19:21:37.516Z,100956.31
2022-08-20T19:24:21.310Z,100951.25
2022-08-20T19:27:00.210Z,100956.91
2022-08-20T19:29:34.428Z,100951.44
2022-08-20T19:32:08.429Z,100949.13
2022-08-20T19:34:39.391Z,100958.38
2022-08-20T19:37:35.604Z,100955.00
2022-08-20T19:40:28.582Z,100961.47
2022-08-20T19:43:03.104Z,100959.75
2022-08-20T19:45:46.475Z,100963.91
2022-08-20T19:48:55.690Z,100966.75
2022-08-20T19:51:45.826Z,100956.81
2022-08-20T19:54:25.983Z,100951.69
2022-08-20T19:57:07.469Z,100957.94
2022-08-20T19:59:35.104Z,100954.47
2022-08-20T20:02:20.447Z,100954.16
2022-08-20T20:04:54.919Z,100958.06
2022-08-20T20:07:39.831Z,100952.13
2022-08-20T20:10:31.765Z,100957.13
2022-08-20T20:13:08.239Z,100958.09
2022-08-20T20:15:37.827Z,100955.28
2022-08-20T20:18:07.270Z,100953.97
2022-08-20T20:20:57.018Z,100952.47
2022-08-20T20:23:45.525Z,100954.09
2022-08-20T20:26:20.245Z,100961.81
2022-08-20T20:29:00.458Z,100958.91
2022-08-20T20:31:44.888Z,100956.94
2022-08-20T20:34:15.581Z,100954.38
2022-08-20T20:36:48.298Z,100957.09
2022-08-20T20:39:36.849Z,100958.41
2022-08-20T20:42:09.302Z,100947.34
2022-08-20T20:44:41.777Z,100958.59
2022-08-20T20:47:23.051Z,100956.09
2022-08-20T20:50:06.675Z,100956.44
2022-08-20T20:52:48.783Z,100954.75
2022-08-20T20:55:21.296Z,100951.53
2022-08-20T20:57:50.929Z,100954.19
2022-08-20T21:00:23.223Z,100950.69
2022-08-20T21:02:50.117Z,100961.53
2022-08-20T21:05:24.933Z,100959.56
2022-08-20T21:08:00.723Z,100966.03
2022-08-20T21:10:35.055Z,100961.63
2022-08-20T21:13:04.692Z,100962.28
2022-08-20T21:15:34.775Z,100955.91
2022-08-20T21:18:07.074Z,100958.31
2022-08-20T21:20:34.797Z,100950.91
2022-08-20T21:23:01.489Z,100949.50
2022-08-20T21:25:32.332Z,100956.41
2022-08-20T21:28:00.011Z,100954.69
2022-08-20T21:30:28.193Z,100961.81
2022-08-20T21:32:55.290Z,100959.84
2022-08-20T21:35:22.459Z,100955.19
2022-08-20T21:37:49.310Z,100949.19
2022-08-20T21:40:21.454Z,100957.31
2022-08-20T21:42:49.168Z,100953.28
2022-08-20T21:45:18.405Z,100960.47
2022-08-20T21:47:46.866Z,100961.31
2022-08-20T21:50:21.205Z,100959.09
2022-08-20T21:52:59.523Z,100955.66
2022-08-20T21:55:39.270Z,100965.00
2022-08-20T21:58:09.285Z,100953.47
2022-08-20T22:00:55.871Z,100954.66
2022-08-20T22:03:35.024Z,100951.81
2022-08-20T22:06:11.853Z,100950.50
2022-08-20T22:08:39.443Z,100950.16
2022-08-20T22:11:10.760Z,100952.41
2022-08-20T22:13:45.569Z,100947.84
2022-08-20T22:16:19.438Z,100948.41
2022-08-20T22:18:49.298Z,100954.34
2022-08-20T22:21:31.413Z,100956.09
2022-08-20T22:24:04.014Z,100951.66
2022-08-20T22:26:35.885Z,100954.22
2022-08-20T22:29:04.112Z,100946.06
2022-08-20T22:31:36.312Z,100946.44
2022-08-20T22:34:05.219Z,100947.09
2022-08-20T22:36:33.439Z,100947.94
2022-08-20T22:39:00.937Z,100950.81
2022-08-20T22:41:28.296Z,100949.31
2022-08-20T22:43:56.292Z,100941.31
2022-08-20T22:46:30.300Z,100940.47
2022-08-20T22:48:57.505Z,100952.72
2022-08-20T22:51:38.730Z,100946.28
2022-08-20T22:54:11.223Z,100952.41
2022-08-20T22:56:38.742Z,100945.63
2022-08-20T22:59:08.370Z,100936.63
2022-08-20T23:01:36.642Z,100928.16
2022-08-20T23:04:25.052Z,100920.34
2022-08-20T23:06:55.620Z,100926.44
2022-08-20T23:09:22.998Z,100923.72
2022-08-20T23:11:52.435Z,100914.75
2022-08-20T23:14:21.877Z,100918.47
2022-08-20T23:17:01.721Z,100911.19
2022-08-20T23:19:28.988Z,100913.03
2022-08-20T23:21:58.742Z,100907.81
2022-08-20T23:24:26.035Z,100912.72
2022-08-20T23:26:53.632Z,100899.34
2022-08-20T23:29:25.510Z,100900.50
2022-08-20T23:31:56.048Z,100902.38
2022-08-20T23:34:24.121Z,100903.59
2022-08-20T23:36:52.570Z,100908.34
2022-08-20T23:39:20.311Z,100902.91
2022-08-20T23:41:48.177Z,100900.53
2022-08-20T23:44:25.222Z,100903.59
2022-08-20T23:47:02.141Z,100899.88
2022-08-20T23:49:32.155Z,100902.91
2022-08-20T23:52:00.696Z,100901.38
2022-08-20T23:54:30.794Z,100901.59
2022-08-20T23:56:57.886Z,100900.22
2022-08-20T23:59:25.503Z,100892.94
